Time;durP1;ratioP1;P1;durP2;ratioP2;P2;SDS_P1;SDS_P2;PMS_P1;PMS_P2;Temp;Humidity;BMP_temperature;BMP_pressure;BME280_temperature;BME280_humidity;BME280_pressure;Samples;Min_cycle;Max_cycle;Signal;HPM_P1;HPM_P2
2023/03/10 00:00:24;;;;;;;3.35;2.70;;;6.20;79.00;;;;;;4902094;29;20032;-88
2023/03/10 00:02:50;;;;;;;3.28;2.70;;;6.20;79.00;;;;;;4933354;29;20060;-89
2023/03/10 00:05:17;;;;;;;3.60;2.75;;;6.20;79.00;;;;;;4917857;29;20038;-87
2023/03/10 00:07:43;;;;;;;3.72;2.70;;;6.20;79.00;;;;;;4918550;29;20036;-89
2023/03/10 00:10:13;;;;;;;3.58;2.70;;;6.20;79.00;;;;;;4901797;29;20362;-87
2023/03/10 00:12:40;;;;;;;3.63;2.75;;;6.20;79.00;;;;;;4917864;29;20032;-88
2023/03/10 00:15:07;;;;;;;4.20;2.58;;;6.20;79.00;;;;;;4902318;29;20040;-87
2023/03/10 00:17:33;;;;;;;3.40;2.70;;;6.20;79.00;;;;;;4901809;29;20125;-89
2023/03/10 00:19:58;;;;;;;3.08;2.47;;;6.20;78.90;;;;;;4902306;29;20063;-89
2023/03/10 00:22:24;;;;;;;3.35;2.58;;;6.20;78.90;;;;;;4917393;29;20040;-87
2023/03/10 00:24:50;;;;;;;3.53;2.58;;;6.20;78.90;;;;;;4917561;29;20192;-87
2023/03/10 00:27:16;;;;;;;3.47;2.60;;;6.20;78.90;;;;;;4901310;29;20036;-88
2023/03/10 00:29:42;;;;;;;2.90;2.42;;;6.20;78.90;;;;;;4917234;29;20184;-90
2023/03/10 00:32:07;;;;;;;3.42;2.67;;;6.20;78.90;;;;;;4917492;29;20038;-89
2023/03/10 00:34:34;;;;;;;3.17;2.60;;;6.20;78.90;;;;;;4917235;29;20127;-89
2023/03/10 00:37:00;;;;;;;3.58;2.60;;;6.20;79.00;;;;;;4902055;29;20059;-88
2023/03/10 00:39:26;;;;;;;2.72;2.30;;;6.20;79.00;;;;;;4917101;29;20062;-86
2023/03/10 00:41:52;;;;;;;3.00;2.70;;;6.20;79.00;;;;;;4917190;29;20070;-89
2023/03/10 00:44:17;;;;;;;3.08;2.42;;;6.20;79.60;;;;;;4918311;29;20051;-87
2023/03/10 00:46:43;;;;;;;3.20;2.50;;;6.20;78.90;;;;;;4928984;29;20080;-89
2023/03/10 00:49:14;;;;;;;2.78;2.40;;;6.20;78.90;;;;;;4924330;29;20062;-89
2023/03/10 00:51:40;;;;;;;2.83;2.50;;;6.30;79.00;;;;;;4933027;29;20032;-90
2023/03/10 00:54:06;;;;;;;3.17;2.47;;;6.20;78.90;;;;;;4917289;29;20043;-86
2023/03/10 00:56:31;;;;;;;3.33;2.65;;;6.20;78.90;;;;;;4917374;29;20052;-85
2023/03/10 00:58:58;;;;;;;3.20;2.63;;;6.30;78.90;;;;;;4901871;29;20381;-89
2023/03/10 01:01:29;;;;;;;2.45;2.20;;;6.20;78.90;;;;;;4919383;29;20036;-88
2023/03/10 01:03:58;;;;;;;2.92;2.58;;;6.30;79.00;;;;;;4890349;29;20028;-90
2023/03/10 01:06:24;;;;;;;3.60;2.40;;;6.30;78.90;;;;;;4889694;29;20497;-91
2023/03/10 01:08:51;;;;;;;2.90;2.60;;;6.20;78.90;;;;;;4920615;29;20037;-90
2023/03/10 01:11:19;;;;;;;3.10;2.50;;;6.20;78.90;;;;;;4905061;29;20028;-91
2023/03/10 01:13:46;;;;;;;2.95;2.38;;;6.20;78.90;;;;;;4921235;29;20187;-91
2023/03/10 01:16:12;;;;;;;3.25;2.50;;;6.30;79.00;;;;;;4923133;29;20036;-85
2023/03/10 01:18:39;;;;;;;2.50;2.30;;;6.30;79.00;;;;;;4924243;29;20032;-89
2023/03/10 01:21:05;;;;;;;3.90;2.88;;;6.30;79.40;;;;;;4937467;29;20111;-89
2023/03/10 01:23:32;;;;;;;2.85;2.40;;;6.30;79.00;;;;;;4923016;29;20079;-89
2023/03/10 01:25:57;;;;;;;3.38;2.60;;;6.30;79.00;;;;;;4922338;29;20039;-88
2023/03/10 01:28:23;;;;;;;3.22;2.50;;;6.30;79.00;;;;;;4922501;29;20365;-87
2023/03/10 01:30:49;;;;;;;2.95;2.38;;;6.30;78.90;;;;;;4921970;29;20171;-88
2023/03/10 01:33:16;;;;;;;2.85;2.38;;;6.30;78.90;;;;;;4905315;29;20036;-89
2023/03/10 01:35:43;;;;;;;3.83;2.88;;;6.30;78.90;;;;;;4936262;29;20042;-88
2023/03/10 01:38:10;;;;;;;3.55;2.83;;;6.30;78.90;;;;;;4889208;29;20030;-89
2023/03/10 01:40:37;;;;;;;3.50;2.55;;;6.30;79.00;;;;;;4921032;29;20127;-90
2023/03/10 01:43:28;;;;;;;3.33;2.75;;;6.30;79.00;;;;;;4938492;29;20127;-91
2023/03/10 01:46:00;;;;;;;2.92;2.40;;;6.30;79.60;;;;;;4907657;29;20056;-89
2023/03/10 01:48:29;;;;;;;3.08;2.50;;;6.30;78.90;;;;;;4921731;29;20032;-90
2023/03/10 01:50:56;;;;;;;3.08;2.45;;;6.30;79.00;;;;;;4905820;29;20103;-86
2023/03/10 01:53:24;;;;;;;3.00;2.42;;;6.30;79.00;;;;;;4921462;29;20052;-88
2023/03/10 01:56:01;;;;;;;2.70;2.30;;;6.30;79.00;;;;;;4905879;29;20075;-90
2023/03/10 01:58:35;;;;;;;3.05;2.60;;;6.30;79.00;;;;;;4936883;29;20024;-89
2023/03/10 02:01:01;;;;;;;2.83;2.45;;;6.30;79.00;;;;;;4920252;29;20068;-90
2023/03/10 02:03:29;;;;;;;2.85;2.50;;;6.30;78.90;;;;;;4904876;29;20028;-88
2023/03/10 02:06:02;;;;;;;3.38;2.65;;;6.30;79.00;;;;;;4919628;29;20485;-88
2023/03/10 02:08:36;;;;;;;2.60;2.40;;;6.30;79.00;;;;;;4920752;29;20032;-88
2023/03/10 02:11:03;;;;;;;3.08;2.55;;;6.30;79.00;;;;;;4904249;29;20036;-89
2023/03/10 02:13:28;;;;;;;3.13;2.50;;;6.30;79.00;;;;;;4920002;29;20035;-89
2023/03/10 02:15:54;;;;;;;3.10;2.67;;;6.30;79.00;;;;;;4919805;29;20040;-88
2023/03/10 02:18:21;;;;;;;3.30;2.40;;;6.30;79.00;;;;;;4919491;29;20079;-89
2023/03/10 02:21:06;;;;;;;3.13;2.45;;;6.30;79.00;;;;;;4903680;29;20123;-89
2023/03/10 02:23:36;;;;;;;2.83;2.38;;;6.30;79.00;;;;;;4903960;29;20039;-89
2023/03/10 02:26:35;;;;;;;2.85;2.50;;;6.30;78.90;;;;;;4919593;29;20043;-89
2023/03/10 02:29:06;;;;;;;2.95;2.40;;;6.40;79.00;;;;;;4935444;29;20500;-91
2023/03/10 02:31:32;;;;;;;2.78;2.38;;;6.30;78.90;;;;;;4904279;29;20066;-90
2023/03/10 02:33:59;;;;;;;3.47;2.60;;;6.30;79.00;;;;;;4919194;29;20032;-90
2023/03/10 02:36:25;;;;;;;3.17;2.38;;;6.30;79.00;;;;;;4903563;29;20028;-90
2023/03/10 02:38:51;;;;;;;2.85;2.50;;;6.30;79.00;;;;;;4903568;29;20055;-90
2023/03/10 02:41:34;;;;;;;2.67;2.38;;;6.30;79.00;;;;;;4912141;29;20044;-85
2023/03/10 02:44:04;;;;;;;2.50;2.30;;;6.40;79.10;;;;;;4903990;29;20040;-89
2023/03/10 02:46:30;;;;;;;2.70;2.22;;;6.40;79.00;;;;;;4919161;29;20123;-86
2023/03/10 02:49:01;;;;;;;2.75;2.50;;;6.30;78.90;;;;;;4903210;29;20527;-91
2023/03/10 02:51:41;;;;;;;3.25;2.58;;;6.40;79.00;;;;;;4903496;29;20389;-90
2023/03/10 02:54:11;;;;;;;;;;;6.40;79.00;;;;;;4919891;29;20095;-90
2023/03/10 02:56:38;;;;;;;3.10;2.50;;;6.30;78.90;;;;;;4903217;29;19922;-91
2023/03/10 02:59:05;;;;;;;2.95;2.38;;;6.40;78.80;;;;;;4919333;29;20045;-88
2023/03/10 03:01:32;;;;;;;2.75;2.35;;;6.40;79.00;;;;;;4903366;29;20486;-90
2023/03/10 03:03:59;;;;;;;2.70;2.42;;;6.30;78.90;;;;;;4903276;29;20047;-90
2023/03/10 03:06:26;;;;;;;3.08;2.38;;;6.40;79.00;;;;;;4918433;29;20473;-90
2023/03/10 03:08:52;;;;;;;2.25;2.03;;;6.40;79.00;;;;;;4918765;29;20070;-89
2023/03/10 03:11:20;;;;;;;2.42;2.15;;;6.40;79.00;;;;;;4903100;29;20040;-85
2023/03/10 03:13:46;;;;;;;3.03;2.45;;;6.40;79.00;;;;;;4903187;29;20032;-90
2023/03/10 03:16:12;;;;;;;2.55;2.35;;;6.40;79.00;;;;;;4903347;29;20184;-89
2023/03/10 03:18:39;;;;;;;3.40;2.50;;;6.40;79.00;;;;;;4918829;29;20039;-91
2023/03/10 03:21:09;;;;;;;3.38;2.53;;;6.40;79.00;;;;;;4919320;29;20032;-90
2023/03/10 03:23:37;;;;;;;2.30;2.10;;;6.40;79.00;;;;;;4935714;29;20036;-90
2023/03/10 03:26:12;;;;;;;2.95;2.22;;;6.40;79.00;;;;;;4903561;29;20056;-91
2023/03/10 03:28:39;;;;;;;2.90;2.40;;;6.40;79.00;;;;;;4918319;29;20127;-90
2023/03/10 03:31:05;;;;;;;3.30;2.60;;;6.40;78.90;;;;;;4918165;29;20067;-89
2023/03/10 03:33:31;;;;;;;2.75;2.40;;;6.40;78.90;;;;;;4918215;29;20060;-90
2023/03/10 03:35:57;;;;;;;2.92;2.40;;;6.40;78.90;;;;;;4902932;29;20044;-89
2023/03/10 03:38:23;;;;;;;2.88;2.38;;;6.40;78.90;;;;;;4902837;29;20028;-89
2023/03/10 03:40:49;;;;;;;2.85;2.33;;;6.40;78.90;;;;;;4902533;29;20039;-89
2023/03/10 03:43:18;;;;;;;3.08;2.50;;;6.40;79.00;;;;;;4902476;29;20028;-89
2023/03/10 03:45:45;;;;;;;3.28;2.67;;;6.40;78.90;;;;;;4933925;29;20145;-88
2023/03/10 03:48:13;;;;;;;3.22;2.65;;;6.40;78.90;;;;;;4918641;29;20086;-89
2023/03/10 03:50:41;;;;;;;3.22;2.60;;;6.40;78.90;;;;;;4917873;29;20065;-89
2023/03/10 03:53:16;;;;;;;3.03;2.60;;;6.50;79.00;;;;;;4902740;29;20024;-89
2023/03/10 03:55:43;;;;;;;2.95;2.42;;;6.40;78.90;;;;;;4901938;29;20044;-91
2023/03/10 03:58:09;;;;;;;2.85;2.55;;;6.40;78.90;;;;;;4933570;29;20031;-89
2023/03/10 04:00:35;;;;;;;3.90;2.65;;;6.40;79.00;;;;;;4901882;29;20040;-90
2023/03/10 04:03:04;;;;;;;3.47;2.58;;;6.40;79.00;;;;;;4916918;29;20028;-88
2023/03/10 04:05:31;;;;;;;3.08;2.60;;;6.50;79.00;;;;;;4918124;29;20040;-88
2023/03/10 04:07:57;;;;;;;2.72;2.38;;;6.50;79.00;;;;;;4901787;29;20119;-92
2023/03/10 04:10:25;;;;;;;3.15;2.47;;;6.50;79.00;;;;;;4901604;29;20128;-90
2023/03/10 04:12:51;;;;;;;3.72;2.90;;;6.50;79.00;;;;;;4917135;29;20043;-91
2023/03/10 04:15:17;;;;;;;3.42;2.72;;;6.50;79.00;;;;;;4933128;29;20108;-91
2023/03/10 04:17:43;;;;;;;3.28;2.50;;;6.50;79.00;;;;;;4901589;29;20092;-90
2023/03/10 04:20:13;;;;;;;3.75;2.78;;;6.50;79.00;;;;;;4901717;29;20032;-92
2023/03/10 04:22:41;;;;;;;3.63;2.80;;;6.50;79.00;;;;;;4917634;29;20489;-91
2023/03/10 04:25:08;;;;;;;3.35;2.83;;;6.50;79.00;;;;;;4901801;29;20041;-89
2023/03/10 04:27:35;;;;;;;3.38;2.53;;;6.50;79.00;;;;;;4918354;29;20454;-88
2023/03/10 04:30:02;;;;;;;3.30;2.67;;;6.50;79.00;;;;;;4903498;29;20127;-90
2023/03/10 04:32:28;;;;;;;3.60;2.88;;;6.50;79.00;;;;;;4924170;29;20016;-89
2023/03/10 04:34:54;;;;;;;3.20;2.67;;;6.50;79.00;;;;;;4920924;29;20048;-89
2023/03/10 04:37:20;;;;;;;3.38;2.70;;;6.50;79.00;;;;;;4920983;29;20028;-89
2023/03/10 04:39:47;;;;;;;3.55;2.70;;;6.50;79.00;;;;;;4923679;29;20100;-89
2023/03/10 04:42:13;;;;;;;3.33;2.63;;;6.50;79.00;;;;;;4921521;29;20134;-90
2023/03/10 04:44:40;;;;;;;3.13;2.47;;;6.50;79.00;;;;;;4917629;29;20103;-89
2023/03/10 04:47:06;;;;;;;3.10;2.47;;;6.50;79.00;;;;;;4901796;29;20031;-90
2023/03/10 04:49:32;;;;;;;3.55;2.60;;;6.50;79.00;;;;;;4917112;29;20036;-89
2023/03/10 04:51:58;;;;;;;3.53;2.50;;;6.50;79.00;;;;;;4917343;29;20028;-88
2023/03/10 04:54:24;;;;;;;3.25;2.75;;;6.50;79.00;;;;;;4901446;29;20044;-88
2023/03/10 04:56:50;;;;;;;3.25;2.55;;;6.50;79.00;;;;;;4885594;29;20484;-88
2023/03/10 04:59:16;;;;;;;3.88;2.70;;;6.50;79.00;;;;;;4901737;29;20047;-89
2023/03/10 05:01:43;;;;;;;2.83;2.33;;;6.50;79.00;;;;;;4917599;29;20457;-88
2023/03/10 05:04:09;;;;;;;2.65;2.17;;;6.50;78.90;;;;;;4901270;29;20047;-88
2023/03/10 05:06:34;;;;;;;3.47;2.50;;;6.50;78.90;;;;;;4933539;29;20028;-89
2023/03/10 05:09:29;;;;;;;3.47;2.78;;;6.50;78.90;;;;;;4902571;29;20036;-89
2023/03/10 05:11:55;;;;;;;3.08;2.50;;;6.50;78.90;;;;;;4905725;29;20040;-86
2023/03/10 05:14:21;;;;;;;3.38;2.42;;;6.50;79.00;;;;;;4902792;29;20035;-86
2023/03/10 05:16:47;;;;;;;3.65;2.53;;;6.50;78.90;;;;;;4902109;29;20032;-89
2023/03/10 05:19:13;;;;;;;3.42;2.60;;;6.50;78.90;;;;;;4918059;29;20039;-89
2023/03/10 05:21:39;;;;;;;3.33;2.60;;;6.50;79.00;;;;;;4918021;29;20040;-90
2023/03/10 05:24:05;;;;;;;3.53;2.67;;;6.50;79.00;;;;;;4917023;29;20032;-92
2023/03/10 05:26:32;;;;;;;3.65;2.80;;;6.50;79.00;;;;;;4917303;29;20028;-86
2023/03/10 05:28:57;;;;;;;3.22;2.50;;;6.50;79.00;;;;;;4918687;29;20031;-91
2023/03/10 05:31:33;;;;;;;3.78;2.78;;;6.50;79.00;;;;;;4917044;29;20040;-89
2023/03/10 05:34:04;;;;;;;3.65;2.65;;;6.50;79.00;;;;;;4918368;29;20479;-89
2023/03/10 05:36:30;;;;;;;3.15;2.72;;;6.50;79.00;;;;;;4901949;29;20044;-90
2023/03/10 05:38:56;;;;;;;3.17;2.60;;;6.50;79.00;;;;;;4900936;29;20466;-88
2023/03/10 05:41:22;;;;;;;3.28;2.30;;;6.50;79.00;;;;;;4885856;29;20068;-89
2023/03/10 05:43:52;;;;;;;3.20;2.40;;;6.50;79.00;;;;;;4901542;29;20028;-90
2023/03/10 05:46:18;;;;;;;3.22;2.42;;;6.50;79.00;;;;;;4901171;29;20051;-90
2023/03/10 05:48:50;;;;;;;3.60;2.60;;;6.50;79.00;;;;;;4904626;29;20103;-89
2023/03/10 05:51:16;;;;;;;3.13;2.40;;;6.50;79.00;;;;;;4920215;29;20040;-90
2023/03/10 05:53:42;;;;;;;2.78;2.20;;;6.50;79.00;;;;;;4920004;29;20524;-91
2023/03/10 05:56:15;;;;;;;3.38;2.53;;;6.50;79.00;;;;;;4919738;29;20048;-91
2023/03/10 05:58:44;;;;;;;2.70;2.30;;;6.50;79.00;;;;;;4904278;29;20037;-90
2023/03/10 06:01:11;;;;;;;3.22;2.30;;;6.50;79.00;;;;;;4903625;29;20032;-90
2023/03/10 06:03:37;;;;;;;3.28;2.47;;;6.50;79.00;;;;;;4919943;29;20059;-90
2023/03/10 06:06:05;;;;;;;3.10;2.20;;;6.50;79.00;;;;;;4904255;29;20483;-90
2023/03/10 06:08:32;;;;;;;2.25;1.90;;;6.50;79.00;;;;;;4920261;29;20028;-90
2023/03/10 06:10:58;;;;;;;2.80;2.33;;;6.50;79.00;;;;;;4919840;29;20032;-90
2023/03/10 06:13:25;;;;;;;2.47;2.03;;;6.50;79.00;;;;;;4935622;29;20032;-89
2023/03/10 06:15:53;;;;;;;2.78;2.17;;;6.50;79.00;;;;;;4919778;29;20122;-89
2023/03/10 06:18:20;;;;;;;2.70;2.20;;;6.50;79.00;;;;;;4903807;29;20021;-89
2023/03/10 06:20:46;;;;;;;2.58;2.00;;;6.50;79.00;;;;;;4903949;29;20092;-90
2023/03/10 06:23:14;;;;;;;3.00;2.35;;;6.50;79.00;;;;;;4903709;29;20113;-91
2023/03/10 06:25:39;;;;;;;2.42;2.05;;;6.50;79.00;;;;;;4904161;29;20044;-90
2023/03/10 06:28:05;;;;;;;3.05;2.10;;;6.50;79.70;;;;;;4924508;29;20035;-86
2023/03/10 06:30:31;;;;;;;2.35;1.92;;;6.50;79.00;;;;;;4927102;29;20059;-89
2023/03/10 06:32:58;;;;;;;2.72;2.00;;;6.50;79.00;;;;;;4919319;29;20040;-87
2023/03/10 06:35:24;;;;;;;2.80;2.03;;;6.50;79.00;;;;;;4903827;29;20043;-89
2023/03/10 06:37:50;;;;;;;2.65;2.20;;;6.50;79.00;;;;;;4903266;29;20020;-86
2023/03/10 06:40:16;;;;;;;2.65;2.22;;;6.50;79.00;;;;;;4918870;29;20067;-88
2023/03/10 06:42:43;;;;;;;2.25;1.95;;;6.50;79.60;;;;;;4904458;29;20127;-88
2023/03/10 06:45:15;;;;;;;2.63;2.15;;;6.50;79.00;;;;;;4888388;29;20044;-88
2023/03/10 06:47:41;;;;;;;2.67;2.08;;;6.50;79.00;;;;;;4935606;29;20054;-88
2023/03/10 06:50:09;;;;;;;2.25;2.00;;;6.50;79.00;;;;;;4903235;29;20036;-89
2023/03/10 06:52:35;;;;;;;2.47;2.05;;;6.50;79.00;;;;;;4903280;29;20124;-89
2023/03/10 06:55:01;;;;;;;2.42;2.00;;;6.50;79.00;;;;;;4903887;29;20482;-88
2023/03/10 06:57:27;;;;;;;2.53;2.13;;;6.50;79.10;;;;;;4887333;29;20043;-88
2023/03/10 06:59:54;;;;;;;2.70;1.95;;;6.50;79.10;;;;;;4902297;29;20537;-91
2023/03/10 07:02:20;;;;;;;2.35;1.90;;;6.50;79.10;;;;;;4903226;29;20035;-89
2023/03/10 07:04:46;;;;;;;2.00;1.80;;;6.50;79.10;;;;;;4887911;29;20043;-87
2023/03/10 07:07:12;;;;;;;2.08;1.77;;;6.50;79.10;;;;;;4903252;29;20036;-86
2023/03/10 07:09:38;;;;;;;2.47;1.95;;;6.50;79.10;;;;;;4903556;29;20024;-93
2023/03/10 07:12:04;;;;;;;1.92;1.73;;;6.50;79.10;;;;;;4887333;29;20365;-84
2023/03/10 07:14:30;;;;;;;2.42;1.95;;;6.50;79.70;;;;;;4903517;29;20048;-85
2023/03/10 07:16:57;;;;;;;2.55;2.00;;;6.50;79.10;;;;;;4918291;29;20087;-89
2023/03/10 07:19:24;;;;;;;2.33;2.08;;;6.50;79.10;;;;;;4918790;29;20016;-92
2023/03/10 07:21:50;;;;;;;2.00;1.80;;;6.50;79.00;;;;;;4902578;29;20044;-92
2023/03/10 07:24:16;;;;;;;2.13;1.83;;;6.50;79.10;;;;;;4918291;29;20028;-90
2023/03/10 07:26:43;;;;;;;1.95;1.75;;;6.50;79.10;;;;;;4918850;29;20032;-91
2023/03/10 07:29:09;;;;;;;2.45;1.90;;;6.50;79.10;;;;;;4902467;29;20032;-88
2023/03/10 07:31:36;;;;;;;2.22;1.90;;;6.50;79.10;;;;;;4918422;29;20024;-90
2023/03/10 07:34:02;;;;;;;2.05;1.77;;;6.50;79.10;;;;;;4887203;29;20043;-88
2023/03/10 07:36:28;;;;;;;1.92;1.70;;;6.50;79.10;;;;;;4933874;29;20075;-89
2023/03/10 07:38:54;;;;;;;2.30;2.00;;;6.50;79.10;;;;;;4918144;29;20077;-89
2023/03/10 07:41:20;;;;;;;1.88;1.67;;;6.50;79.10;;;;;;4918204;29;20064;-90
2023/03/10 07:43:50;;;;;;;1.70;1.60;;;6.60;79.20;;;;;;4903045;29;20102;-87
2023/03/10 07:46:16;;;;;;;2.20;1.77;;;6.50;79.20;;;;;;4903763;29;20043;-88
2023/03/10 07:48:42;;;;;;;2.00;1.80;;;6.50;79.10;;;;;;4934978;29;20028;-88
2023/03/10 07:51:08;;;;;;;1.95;1.75;;;6.60;79.20;;;;;;4918999;29;20039;-86
2023/03/10 07:53:34;;;;;;;2.42;1.95;;;6.50;79.10;;;;;;4934377;29;20052;-89
2023/03/10 07:56:07;;;;;;;2.00;1.80;;;6.50;79.20;;;;;;4903170;29;20461;-89
2023/03/10 07:58:33;;;;;;;2.25;2.05;;;6.50;79.20;;;;;;4902593;29;20028;-84
2023/03/10 08:01:00;;;;;;;2.45;1.90;;;6.50;79.10;;;;;;4901762;29;20020;-88
2023/03/10 08:03:26;;;;;;;1.70;1.60;;;6.50;79.10;;;;;;4933457;29;20020;-88
2023/03/10 08:05:52;;;;;;;1.90;1.70;;;6.50;79.20;;;;;;4902667;29;20327;-85
2023/03/10 08:08:18;;;;;;;2.25;1.92;;;6.50;79.20;;;;;;4901696;29;20036;-87
2023/03/10 08:10:44;;;;;;;2.08;1.88;;;6.60;79.20;;;;;;4886452;29;20027;-85
2023/03/10 08:13:11;;;;;;;2.20;2.00;;;6.50;79.20;;;;;;4901633;29;20028;-84
2023/03/10 08:15:38;;;;;;;2.22;2.00;;;6.50;79.20;;;;;;4885867;29;20115;-84
2023/03/10 08:18:06;;;;;;;2.20;1.85;;;6.60;79.20;;;;;;4886582;29;20020;-92
2023/03/10 08:20:34;;;;;;;3.05;2.00;;;6.60;79.20;;;;;;4886884;29;20508;-87
2023/03/10 08:23:00;;;;;;;2.50;1.90;;;6.60;79.20;;;;;;4944273;29;20118;-86
2023/03/10 08:25:26;;;;;;;1.95;1.73;;;6.60;79.20;;;;;;4941467;29;20032;-88
2023/03/10 08:27:52;;;;;;;2.13;1.90;;;6.60;79.20;;;;;;4933322;29;20032;-90
2023/03/10 08:30:18;;;;;;;2.75;1.98;;;6.60;79.20;;;;;;4901349;29;20028;-89
2023/03/10 08:32:43;;;;;;;2.28;1.95;;;6.60;79.80;;;;;;4917573;29;20028;-92
2023/03/10 08:35:09;;;;;;;2.20;1.77;;;6.60;79.20;;;;;;4917960;29;20406;-90
2023/03/10 08:37:35;;;;;;;2.22;1.80;;;6.60;79.20;;;;;;4932816;29;20032;-90
2023/03/10 08:40:02;;;;;;;2.22;1.80;;;6.60;79.20;;;;;;4917985;29;20048;-88
2023/03/10 08:42:30;;;;;;;2.38;2.10;;;6.60;79.20;;;;;;4932993;29;20506;-92
2023/03/10 08:44:56;;;;;;;2.17;1.85;;;6.60;79.20;;;;;;4901158;29;20040;-87
2023/03/10 08:47:22;;;;;;;2.10;1.90;;;6.60;79.20;;;;;;4917120;29;20084;-92
2023/03/10 08:49:48;;;;;;;2.75;1.95;;;6.60;79.20;;;;;;4901250;29;20028;-87
2023/03/10 08:52:14;;;;;;;2.45;1.88;;;6.60;79.20;;;;;;4933395;29;20028;-92
2023/03/10 08:54:40;;;;;;;2.67;2.22;;;6.70;79.30;;;;;;4933076;29;20040;-90
2023/03/10 08:57:06;;;;;;;2.60;1.98;;;6.70;79.30;;;;;;4917120;29;20044;-89
2023/03/10 08:59:32;;;;;;;2.22;2.00;;;6.70;79.30;;;;;;4901023;29;20028;-87
2023/03/10 09:01:58;;;;;;;2.63;2.00;;;6.60;79.20;;;;;;4901551;29;20051;-92
2023/03/10 09:04:23;;;;;;;3.15;2.15;;;6.70;79.20;;;;;;4933078;29;20080;-92
2023/03/10 09:06:49;;;;;;;2.20;2.00;;;6.70;79.30;;;;;;4900734;29;20118;-88
2023/03/10 09:09:15;;;;;;;2.83;2.08;;;6.70;79.20;;;;;;4918089;29;20028;-92
2023/03/10 09:11:42;;;;;;;2.85;2.20;;;6.70;79.30;;;;;;4917000;29;20039;-93
2023/03/10 09:14:09;;;;;;;2.45;2.05;;;6.70;79.30;;;;;;4901308;29;20051;-90
2023/03/10 09:16:38;;;;;;;3.13;2.28;;;6.70;79.20;;;;;;4901159;29;20044;-90
2023/03/10 09:19:04;;;;;;;2.05;1.83;;;6.70;79.20;;;;;;4916806;29;20028;-90
2023/03/10 09:21:31;;;;;;;2.30;1.92;;;6.80;79.30;;;;;;4901961;29;20067;-91
2023/03/10 09:23:57;;;;;;;2.33;1.88;;;6.80;79.20;;;;;;4920464;29;20135;-90
2023/03/10 09:26:23;;;;;;;2.65;2.17;;;6.80;79.20;;;;;;4904863;29;20047;-87
2023/03/10 09:28:50;;;;;;;2.38;1.90;;;6.80;79.20;;;;;;4904444;29;20032;-90
2023/03/10 09:31:27;;;;;;;2.45;2.00;;;6.80;79.20;;;;;;4921458;29;20044;-91
2023/03/10 09:33:52;;;;;;;3.05;2.13;;;6.80;79.30;;;;;;4904697;29;20556;-93
2023/03/10 09:36:18;;;;;;;2.40;1.90;;;6.80;79.20;;;;;;4920200;29;20145;-92
2023/03/10 09:38:44;;;;;;;2.58;2.10;;;6.80;79.20;;;;;;4920247;29;20160;-91
2023/03/10 09:41:33;;;;;;;2.22;2.03;;;6.80;79.20;;;;;;4936267;29;20131;-92
2023/03/10 09:44:16;;;;;;;2.10;1.90;;;6.90;79.30;;;;;;4920799;29;20107;-88
2023/03/10 09:47:02;;;;;;;3.15;2.22;;;6.90;79.30;;;;;;4904761;29;20042;-91
2023/03/10 09:49:36;;;;;;;3.00;2.30;;;6.90;79.30;;;;;;4921615;29;20028;-90
2023/03/10 09:52:24;;;;;;;2.42;2.10;;;6.90;79.30;;;;;;4904127;29;20028;-91
2023/03/10 09:54:57;;;;;;;2.33;1.90;;;6.90;79.30;;;;;;4920034;29;20032;-90
2023/03/10 09:57:24;;;;;;;2.33;1.90;;;6.90;79.30;;;;;;4904541;29;20039;-90
2023/03/10 09:59:54;;;;;;;2.50;1.98;;;6.90;79.30;;;;;;4903883;29;20080;-93
2023/03/10 10:02:24;;;;;;;2.78;2.20;;;6.90;79.30;;;;;;4921438;29;20107;-92
2023/03/10 10:04:55;;;;;;;2.75;2.20;;;6.90;79.30;;;;;;4936000;29;20040;-93
2023/03/10 10:07:28;;;;;;;2.00;1.80;;;6.90;79.20;;;;;;4905033;29;20032;-95
2023/03/10 10:10:01;;;;;;;2.75;2.00;;;6.90;79.20;;;;;;4888554;29;20052;-91
2023/03/10 10:12:27;;;;;;;2.50;2.08;;;6.90;79.20;;;;;;4905125;29;20059;-88
2023/03/10 10:14:57;;;;;;;2.55;1.90;;;7.00;79.30;;;;;;4920831;29;20414;-87
2023/03/10 10:17:46;;;;;;;2.60;1.85;;;7.00;79.30;;;;;;4895739;29;20023;-89
2023/03/10 10:20:49;;;;;;;2.10;1.88;;;7.00;79.30;;;;;;4928734;29;20032;-91
2023/03/10 10:23:32;;;;;;;3.08;1.88;;;7.00;79.30;;;;;;4912227;29;20414;-90
2023/03/10 10:26:07;;;;;;;2.00;1.80;;;7.00;79.30;;;;;;4920762;29;20042;-89
2023/03/10 10:29:05;;;;;;;2.33;1.90;;;7.00;79.20;;;;;;4904397;29;20107;-87
2023/03/10 10:31:32;;;;;;;2.40;1.95;;;7.00;79.30;;;;;;4897462;29;20051;-88
2023/03/10 10:34:04;;;;;;;1.85;1.73;;;7.00;79.20;;;;;;4917744;29;20115;-85
2023/03/10 10:36:47;;;;;;;2.15;1.80;;;7.00;79.30;;;;;;4918783;29;20044;-83
2023/03/10 10:39:33;;;;;;;2.40;2.00;;;7.00;79.30;;;;;;4919539;29;20046;-86
2023/03/10 10:42:32;;;;;;;2.65;2.20;;;7.00;79.30;;;;;;4903029;29;20454;-87
2023/03/10 10:45:05;;;;;;;2.17;1.92;;;7.00;79.30;;;;;;4888668;29;20504;-84
2023/03/10 10:47:45;;;;;;;2.35;2.00;;;7.00;79.20;;;;;;4934582;29;20164;-88
2023/03/10 10:50:20;;;;;;;2.17;1.90;;;7.10;79.30;;;;;;4934489;29;20031;-87
2023/03/10 10:52:49;;;;;;;2.60;2.00;;;7.10;79.30;;;;;;4934583;29;20036;-86
2023/03/10 10:55:27;;;;;;;2.10;1.90;;;7.10;79.20;;;;;;4903486;29;20087;-87
2023/03/10 10:57:56;;;;;;;2.47;1.80;;;7.10;79.30;;;;;;4886882;29;20032;-88
2023/03/10 11:00:30;;;;;;;2.55;1.92;;;7.10;79.20;;;;;;4903287;29;20079;-87
2023/03/10 11:02:57;;;;;;;2.10;1.90;;;7.10;79.20;;;;;;4903308;29;20104;-87
2023/03/10 11:05:37;;;;;;;1.80;1.60;;;7.10;79.20;;;;;;4921185;29;20467;-87
2023/03/10 11:08:18;;;;;;;1.75;1.65;;;7.20;79.20;;;;;;4936310;29;20389;-87
2023/03/10 11:10:58;;;;;;;2.30;2.00;;;7.20;79.20;;;;;;4904740;29;20036;-88
2023/03/10 11:13:57;;;;;;;1.70;1.60;;;7.20;79.20;;;;;;4920058;29;20028;-87
2023/03/10 11:16:35;;;;;;;1.77;1.65;;;7.20;79.20;;;;;;4920394;29;20235;-87
2023/03/10 11:19:07;;;;;;;2.10;1.90;;;7.20;79.20;;;;;;4919316;29;20028;-89
2023/03/10 11:21:39;;;;;;;2.85;1.88;;;7.20;79.20;;;;;;4920134;29;20036;-88
2023/03/10 11:24:26;;;;;;;1.88;1.75;;;7.20;79.20;;;;;;4902366;29;20051;-89
2023/03/10 11:27:01;;;;;;;2.00;1.80;;;7.30;79.30;;;;;;4933809;29;20441;-83
2023/03/10 11:29:55;;;;;;;1.85;1.73;;;7.30;79.20;;;;;;4918944;29;20028;-91
2023/03/10 11:32:56;;;;;;;2.28;1.73;;;7.30;79.20;;;;;;4902019;29;20032;-85
2023/03/10 11:35:36;;;;;;;2.00;1.80;;;7.30;79.20;;;;;;4902178;29;20036;-84
2023/03/10 11:38:27;;;;;;;1.80;1.70;;;7.30;79.20;;;;;;4933321;29;20438;-85
2023/03/10 11:41:29;;;;;;;2.20;1.83;;;7.30;79.20;;;;;;4933140;29;20052;-85
2023/03/10 11:44:00;;;;;;;2.47;1.67;;;7.30;79.20;;;;;;4867125;29;20044;-87
2023/03/10 11:47:02;;;;;;;2.22;1.70;;;7.30;79.20;;;;;;4902082;29;20099;-87
2023/03/10 11:49:36;;;;;;;1.85;1.65;;;7.30;79.20;;;;;;4933433;29;20168;-87
2023/03/10 11:52:11;;;;;;;2.15;1.52;;;7.30;79.20;;;;;;4902302;29;20032;-88
2023/03/10 11:54:46;;;;;;;;;;;7.40;79.20;;;;;;4902572;29;20107;-88
2023/03/10 11:57:19;;;;;;;1.50;1.40;;;7.30;79.10;;;;;;4917450;29;19912;-88
2023/03/10 11:59:51;;;;;;;1.60;1.50;;;7.30;79.00;;;;;;4919489;29;20043;-88
2023/03/10 12:02:28;;;;;;;1.65;1.55;;;7.40;79.20;;;;;;4933788;29;20127;-89
2023/03/10 12:05:06;;;;;;;1.80;1.70;;;7.40;79.20;;;;;;4918682;29;20028;-88
2023/03/10 12:07:39;;;;;;;2.00;1.63;;;7.40;79.30;;;;;;4933533;29;20103;-88
2023/03/10 12:10:11;;;;;;;2.85;1.77;;;7.40;79.20;;;;;;4918654;29;20025;-88
2023/03/10 12:12:44;;;;;;;2.25;1.80;;;7.40;79.20;;;;;;4933759;29;20032;-88
2023/03/10 12:15:25;;;;;;;1.70;1.60;;;7.40;79.20;;;;;;4903851;29;20059;-86
2023/03/10 12:17:53;;;;;;;1.48;1.38;;;7.40;79.30;;;;;;4918583;29;20038;-87
2023/03/10 12:20:23;;;;;;;1.80;1.70;;;7.40;79.20;;;;;;4918378;29;20020;-87
2023/03/10 12:22:58;;;;;;;1.80;1.70;;;7.40;79.30;;;;;;4918563;29;20028;-87
2023/03/10 12:25:29;;;;;;;2.35;1.88;;;7.40;79.30;;;;;;4918309;29;20118;-88
2023/03/10 12:28:29;;;;;;;1.67;1.52;;;7.40;79.30;;;;;;4917093;29;20127;-88
2023/03/10 12:31:01;;;;;;;1.58;1.45;;;7.50;79.30;;;;;;4917402;29;20032;-88
2023/03/10 12:33:30;;;;;;;1.70;1.60;;;7.40;79.20;;;;;;4933958;29;20032;-88
2023/03/10 12:36:20;;;;;;;2.05;1.80;;;7.50;79.30;;;;;;4916985;29;20039;-88
2023/03/10 12:38:59;;;;;;;1.77;1.60;;;7.50;79.30;;;;;;4933370;29;20127;-88
2023/03/10 12:41:25;;;;;;;2.38;1.60;;;7.50;79.30;;;;;;4918266;29;20040;-88
2023/03/10 12:44:01;;;;;;;1.92;1.77;;;7.50;79.30;;;;;;4917920;29;20043;-87
2023/03/10 12:47:02;;;;;;;2.00;1.70;;;7.50;79.30;;;;;;4901466;29;20074;-89
2023/03/10 12:49:40;;;;;;;2.20;1.67;;;7.50;79.30;;;;;;4915181;29;20099;-89
2023/03/10 12:52:06;;;;;;;2.75;1.85;;;7.50;79.30;;;;;;4933451;29;20040;-88
2023/03/10 12:54:44;;;;;;;1.77;1.67;;;7.50;79.30;;;;;;4916453;29;20025;-89
2023/03/10 12:57:32;;;;;;;2.10;1.80;;;7.50;79.30;;;;;;4919667;29;20028;-88
2023/03/10 13:00:19;;;;;;;1.98;1.70;;;7.50;79.30;;;;;;4921425;29;20029;-89
2023/03/10 13:03:17;;;;;;;1.60;1.50;;;7.50;79.30;;;;;;4920927;29;20091;-89
2023/03/10 13:05:58;;;;;;;1.75;1.60;;;7.50;79.30;;;;;;4888344;29;20047;-89
2023/03/10 13:08:33;;;;;;;1.73;1.63;;;7.60;79.30;;;;;;4921115;29;20100;-88
2023/03/10 13:11:00;;;;;;;1.50;1.40;;;7.60;79.30;;;;;;4905423;29;20032;-89
2023/03/10 13:13:35;;;;;;;1.85;1.63;;;7.60;79.30;;;;;;4905472;29;20060;-89